This is the latest recevied weather packets stored in our database for station/object IW1CBG-23. If no packets are shown the sender has not sent any weather packets the latest 10 day(s).
| Time | Temp. | Humidity | Pressure | Rain* | Wind** | Luminosity | Snow |
|---|---|---|---|---|---|---|---|
| 1777812670 | 12.78° C | 67% | 1014.3 hPa | - | - | - | - |
| 1777811434 | 13.33° C | 65% | 1014.4 hPa | - | - | - | - |
| 1777810198 | 14.44° C | 61% | 1014.5 hPa | - | - | - | - |
| 1777808961 | 14.44° C | 57% | 1014.5 hPa | - | - | - | - |
| 1777806485 | 14.44° C | 56% | 1014.4 hPa | - | - | - | - |
| 1777805247 | 14.44° C | 56% | 1014.6 hPa | - | - | - | - |
| 1777804012 | 14.44° C | 55% | 1014.6 hPa | - | - | - | - |
| 1777802775 | 17.22° C | 44% | 1014.5 hPa | - | - | - | - |
| 1777801534 | 15° C | 45% | 1014.5 hPa | - | - | - | - |
| 1777800298 | 16.11° C | 45% | 1014.8 hPa | - | - | - | - |
| 1777799056 | 15.56° C | 48% | 1014.9 hPa | - | - | - | - |
| 1777797818 | 13.33° C | 56% | 1014.9 hPa | - | - | - | - |
| 1777796578 | 11.67° C | 54% | 1015.1 hPa | - | - | - | - |
| 1777795342 | 11.67° C | 51% | 1014.9 hPa | - | - | - | - |
| 1777794105 | 12.78° C | 49% | 1014.8 hPa | - | - | - | - |
| 1777792866 | 12.22° C | 49% | 1014.8 hPa | - | - | - | - |
| 1777791631 | 12.22° C | 47% | 1014.8 hPa | - | - | - | - |
| 1777790395 | 13.89° C | 43% | 1014.8 hPa | - | - | - | - |
| 1777789155 | 13.33° C | 44% | 1014.9 hPa | - | - | - | - |
| 1777787915 | 12.22° C | 44% | 1014.9 hPa | - | - | - | - |
| 1777786677 | 11.11° C | 44% | 1014.9 hPa | - | - | - | - |
| 1777785438 | 11.11° C | 46% | 1014.9 hPa | - | - | - | - |
| 1777784201 | 10.56° C | 48% | 1014.9 hPa | - | - | - | - |
| 1777782963 | 10.56° C | 51% | 1014.9 hPa | - | - | - | - |
| 1777781727 | 11.11° C | 62% | 1014.9 hPa | - | - | - | - |
* Rain since midnight (hover to see other rain measurements)
** Current wind speed in m/s (hover to see current wind gust speed)